createdAt,value
2023-03-15T00:01:46.706Z,1.50
2023-03-15T00:04:15.679Z,1.00
2023-03-15T00:06:44.120Z,1.27
2023-03-15T00:09:12.527Z,1.30
2023-03-15T00:11:42.185Z,1.00
2023-03-15T00:14:10.681Z,1.30
2023-03-15T00:16:39.165Z,1.10
2023-03-15T00:19:07.541Z,1.17
2023-03-15T00:21:36.110Z,1.43
2023-03-15T00:24:04.698Z,1.03
2023-03-15T00:26:33.194Z,1.17
2023-03-15T00:29:02.925Z,1.53
2023-03-15T00:31:31.393Z,1.13
2023-03-15T00:33:59.844Z,1.17
2023-03-15T00:36:28.228Z,1.00
2023-03-15T00:38:57.208Z,1.00
2023-03-15T00:41:25.731Z,1.00
2023-03-15T00:43:54.100Z,0.90
2023-03-15T00:46:24.023Z,1.00
2023-03-15T00:48:52.723Z,1.20
2023-03-15T00:51:21.670Z,1.00
2023-03-15T00:53:50.154Z,1.07
2023-03-15T00:56:19.246Z,1.10
2023-03-15T00:58:47.724Z,1.07
2023-03-15T01:01:16.618Z,1.00
2023-03-15T01:03:46.394Z,0.90
2023-03-15T01:06:15.372Z,0.90
2023-03-15T01:08:43.705Z,1.00
2023-03-15T01:11:12.801Z,0.87
2023-03-15T01:13:41.187Z,0.83
2023-03-15T01:16:09.933Z,1.03
2023-03-15T01:18:38.550Z,1.00
2023-03-15T01:21:09.511Z,1.10
2023-03-15T01:23:37.989Z,1.17
2023-03-15T01:26:06.964Z,1.00
2023-03-15T01:28:35.314Z,1.00
2023-03-15T01:31:03.970Z,0.83
2023-03-15T01:33:32.642Z,0.90
2023-03-15T01:36:01.358Z,0.97
2023-03-15T01:38:31.198Z,0.97
2023-03-15T01:40:59.574Z,1.33
2023-03-15T01:43:28.261Z,0.90
2023-03-15T01:45:59.086Z,1.07
2023-03-15T01:48:27.893Z,1.43
2023-03-15T01:50:56.328Z,1.20
2023-03-15T01:53:24.766Z,1.10
2023-03-15T01:55:54.474Z,0.90
2023-03-15T01:58:22.995Z,0.90
2023-03-15T02:00:53.024Z,0.90
2023-03-15T02:03:22.768Z,0.90
2023-03-15T02:05:54.820Z,1.20
2023-03-15T02:08:23.343Z,1.10
2023-03-15T02:10:52.849Z,1.00
2023-03-15T02:13:23.833Z,1.10
2023-03-15T02:15:53.554Z,2.40
2023-03-15T02:18:22.016Z,1.20
2023-03-15T02:20:51.647Z,1.20
2023-03-15T02:23:20.538Z,1.33
2023-03-15T02:25:51.465Z,1.20
2023-03-15T02:28:21.397Z,1.30
2023-03-15T02:30:49.782Z,1.27
2023-03-15T02:33:19.517Z,1.10
2023-03-15T02:35:48.074Z,1.20
2023-03-15T02:38:16.412Z,1.03
2023-03-15T02:40:44.797Z,1.30
2023-03-15T02:43:16.262Z,1.20
2023-03-15T02:45:45.989Z,1.10
2023-03-15T02:48:14.418Z,1.20
2023-03-15T02:50:42.871Z,1.20
2023-03-15T02:53:12.383Z,1.00
2023-03-15T02:55:41.106Z,1.00
2023-03-15T02:58:09.612Z,1.17
2023-03-15T03:00:38.197Z,1.30
2023-03-15T03:03:09.089Z,1.40
2023-03-15T03:05:37.532Z,1.20
2023-03-15T03:08:06.105Z,1.13
2023-03-15T03:10:34.814Z,1.20
2023-03-15T03:13:03.286Z,1.43
2023-03-15T03:15:31.666Z,1.20
2023-03-15T03:18:00.058Z,1.17
2023-03-15T03:20:29.848Z,0.90
2023-03-15T03:22:58.404Z,1.20
2023-03-15T03:25:27.521Z,1.20
2023-03-15T03:27:57.212Z,1.10
2023-03-15T03:30:25.870Z,1.20
2023-03-15T03:32:54.353Z,1.10
2023-03-15T03:35:22.899Z,1.17
2023-03-15T03:37:53.867Z,1.20
2023-03-15T03:40:22.349Z,0.90
2023-03-15T03:42:50.677Z,1.07
2023-03-15T03:45:19.101Z,1.20
2023-03-15T03:47:48.077Z,1.17
2023-03-15T03:50:16.541Z,1.10
2023-03-15T03:52:44.941Z,1.20
2023-03-15T03:55:14.818Z,1.10
2023-03-15T03:57:43.125Z,1.20
2023-03-15T04:00:12.626Z,1.20
2023-03-15T04:02:42.793Z,1.07
2023-03-15T04:05:11.262Z,1.13
2023-03-15T04:07:39.642Z,1.00
2023-03-15T04:10:08.376Z,1.00
2023-03-15T04:12:38.135Z,1.13
2023-03-15T04:15:06.993Z,1.10
2023-03-15T04:17:35.409Z,1.13
2023-03-15T04:20:07.028Z,1.00
2023-03-15T04:22:35.905Z,1.57
2023-03-15T04:25:04.378Z,1.43
2023-03-15T04:27:32.816Z,1.40
2023-03-15T04:30:05.671Z,1.30
2023-03-15T04:32:34.231Z,1.93
2023-03-15T04:35:02.677Z,1.60
2023-03-15T04:37:32.228Z,2.40
2023-03-15T04:40:01.300Z,1.40
2023-03-15T04:42:29.696Z,1.60
2023-03-15T04:44:58.092Z,1.60
2023-03-15T04:47:27.992Z,1.63
2023-03-15T04:49:56.371Z,1.60
2023-03-15T04:52:24.874Z,2.10
2023-03-15T04:54:53.311Z,1.53
2023-03-15T04:57:21.763Z,1.23
2023-03-15T04:59:50.142Z,1.40
2023-03-15T05:02:18.721Z,1.37
2023-03-15T05:04:48.639Z,1.63
2023-03-15T05:07:17.129Z,1.97
2023-03-15T05:09:46.369Z,1.47
2023-03-15T05:12:14.987Z,1.93
2023-03-15T05:14:43.521Z,1.60
2023-03-15T05:17:12.163Z,1.87
2023-03-15T05:19:42.042Z,1.63
2023-03-15T05:22:12.356Z,1.90
2023-03-15T05:24:40.776Z,1.70
2023-03-15T05:27:09.192Z,1.70
2023-03-15T05:29:37.838Z,1.97
2023-03-15T05:32:06.583Z,2.17
2023-03-15T05:34:34.964Z,2.20
2023-03-15T05:37:03.292Z,1.80
2023-03-15T05:39:34.758Z,2.03
2023-03-15T05:42:03.289Z,1.90
2023-03-15T05:44:31.906Z,2.37
2023-03-15T05:47:00.305Z,1.93
2023-03-15T05:49:28.958Z,2.30
2023-03-15T05:51:57.365Z,1.70
2023-03-15T05:54:25.802Z,1.90
2023-03-15T05:56:55.757Z,2.20
2023-03-15T05:59:24.118Z,2.50
2023-03-15T06:01:52.522Z,2.30
2023-03-15T06:04:20.990Z,2.30
2023-03-15T06:06:49.639Z,2.37
2023-03-15T06:09:17.992Z,2.30
2023-03-15T06:11:46.393Z,2.03
2023-03-15T06:14:16.218Z,2.50
2023-03-15T06:16:44.678Z,2.50
2023-03-15T06:19:13.179Z,2.60
2023-03-15T06:21:41.631Z,2.90
2023-03-15T06:24:10.356Z,2.23
2023-03-15T06:26:38.780Z,2.53
2023-03-15T06:29:07.282Z,2.70
2023-03-15T06:31:37.224Z,2.60
2023-03-15T06:34:05.638Z,2.97
2023-03-15T06:36:34.042Z,3.50
2023-03-15T06:39:02.869Z,3.40
2023-03-15T06:41:32.575Z,3.87
2023-03-15T06:44:00.990Z,3.97
2023-03-15T06:46:29.452Z,3.70
2023-03-15T06:48:59.257Z,4.43
2023-03-15T06:51:27.733Z,3.97
2023-03-15T06:53:56.136Z,4.10
2023-03-15T06:56:24.592Z,4.10
2023-03-15T06:58:52.939Z,4.30
2023-03-15T07:01:21.337Z,4.13
2023-03-15T07:03:50.212Z,4.97
2023-03-15T07:06:20.149Z,3.80
2023-03-15T07:08:48.561Z,3.70
2023-03-15T07:11:17.179Z,3.23
2023-03-15T07:13:45.873Z,3.00
2023-03-15T07:16:14.410Z,3.40
2023-03-15T07:18:42.821Z,2.90
2023-03-15T07:21:11.315Z,2.53
2023-03-15T07:23:41.188Z,3.10
2023-03-15T07:26:09.637Z,2.57
2023-03-15T07:28:37.995Z,2.73
2023-03-15T07:31:06.789Z,2.60
2023-03-15T07:33:36.472Z,2.60
2023-03-15T07:36:05.374Z,3.77
2023-03-15T07:38:33.848Z,3.03
2023-03-15T07:41:14.243Z,2.93
2023-03-15T07:43:42.705Z,2.77
2023-03-15T07:46:11.386Z,2.90
2023-03-15T07:48:39.830Z,2.57
2023-03-15T07:51:08.261Z,2.37
2023-03-15T07:53:43.518Z,3.17
2023-03-15T07:56:19.652Z,2.03
2023-03-15T07:58:48.473Z,2.57
2023-03-15T08:01:17.049Z,2.37
2023-03-15T08:03:45.500Z,3.30
2023-03-15T08:06:13.935Z,3.40
2023-03-15T08:08:42.260Z,2.50
2023-03-15T08:11:10.551Z,2.70
2023-03-15T08:13:41.817Z,2.73
2023-03-15T08:16:10.546Z,2.40
2023-03-15T08:18:38.870Z,2.10
2023-03-15T08:21:07.467Z,2.40
2023-03-15T08:23:35.789Z,1.93
2023-03-15T08:26:04.370Z,2.20
2023-03-15T08:28:32.690Z,2.37
2023-03-15T08:31:06.401Z,2.40
2023-03-15T08:33:34.957Z,2.63
2023-03-15T08:36:03.463Z,2.07
2023-03-15T08:38:32.236Z,1.80
2023-03-15T08:41:00.831Z,1.90
2023-03-15T08:43:29.659Z,2.30
2023-03-15T08:46:01.502Z,1.70
2023-03-15T08:48:32.212Z,1.60
2023-03-15T08:51:04.205Z,1.50
2023-03-15T08:53:32.627Z,1.53
2023-03-15T08:56:01.004Z,2.23
2023-03-15T08:58:29.462Z,1.70
2023-03-15T09:00:58.737Z,1.70
2023-03-15T09:03:27.190Z,1.57
2023-03-15T09:05:58.891Z,1.83
2023-03-15T09:08:27.229Z,2.20
2023-03-15T09:10:58.777Z,1.60
2023-03-15T09:13:27.278Z,1.50
2023-03-15T09:15:55.882Z,1.60
2023-03-15T09:18:24.371Z,1.63
2023-03-15T09:20:52.926Z,1.50
2023-03-15T09:23:40.650Z,1.87
2023-03-15T09:26:09.148Z,1.40
2023-03-15T09:28:37.705Z,1.60
2023-03-15T09:31:07.640Z,1.77
2023-03-15T09:33:36.445Z,1.60
2023-03-15T09:36:04.947Z,1.90
2023-03-15T09:38:34.814Z,1.60
2023-03-15T09:41:03.836Z,1.43
2023-03-15T09:43:40.707Z,1.47
2023-03-15T09:46:13.040Z,2.07
2023-03-15T09:48:42.646Z,1.50
2023-03-15T09:51:12.155Z,1.50
2023-03-15T09:53:42.188Z,1.50
2023-03-15T09:56:14.369Z,1.70
2023-03-15T09:58:42.780Z,1.53
2023-03-15T10:01:12.944Z,1.43
2023-03-15T10:03:44.012Z,1.60
2023-03-15T10:06:14.389Z,1.40
2023-03-15T10:08:44.234Z,1.40
2023-03-15T10:11:15.143Z,1.40
2023-03-15T10:13:47.024Z,1.40
2023-03-15T10:16:22.510Z,1.20
2023-03-15T10:18:56.700Z,1.63
2023-03-15T10:21:29.168Z,1.30
2023-03-15T10:23:58.982Z,1.50
2023-03-15T10:26:28.765Z,1.57
2023-03-15T10:28:57.235Z,1.80
2023-03-15T10:31:41.056Z,2.00
2023-03-15T10:34:12.573Z,1.90
2023-03-15T10:36:45.431Z,2.07
2023-03-15T10:39:15.318Z,2.10
2023-03-15T10:41:45.673Z,1.80
2023-03-15T10:44:15.189Z,1.97
2023-03-15T10:46:43.797Z,2.13
2023-03-15T10:49:13.233Z,2.60
2023-03-15T10:51:43.514Z,2.13
2023-03-15T10:54:17.126Z,2.07
2023-03-15T10:56:46.914Z,2.40
2023-03-15T10:59:19.429Z,2.17
2023-03-15T11:01:49.355Z,2.00
2023-03-15T11:04:18.858Z,2.30
2023-03-15T11:06:48.285Z,2.07
2023-03-15T11:09:18.627Z,1.93
2023-03-15T11:11:50.977Z,1.87
2023-03-15T11:14:19.837Z,2.27
2023-03-15T11:16:49.091Z,2.00
2023-03-15T11:19:18.078Z,1.93
2023-03-15T11:21:46.420Z,1.83
2023-03-15T11:24:21.862Z,2.03
2023-03-15T11:26:53.302Z,2.13
2023-03-15T11:29:23.198Z,1.70
2023-03-15T11:31:51.932Z,1.90
2023-03-15T11:34:24.026Z,1.90
2023-03-15T11:37:05.380Z,1.90
2023-03-15T11:39:38.839Z,1.60
2023-03-15T11:42:09.969Z,1.70
2023-03-15T11:44:39.976Z,1.60
2023-03-15T11:47:11.133Z,1.60
2023-03-15T11:49:39.931Z,1.67
2023-03-15T11:52:08.691Z,1.30
2023-03-15T11:54:38.503Z,1.70
2023-03-15T11:57:07.403Z,1.90
2023-03-15T11:59:36.958Z,1.20
2023-03-15T12:02:31.211Z,1.57
2023-03-15T12:05:06.277Z,1.57
2023-03-15T12:07:43.073Z,1.50
2023-03-15T12:10:26.960Z,1.30
2023-03-15T12:12:58.926Z,1.23
2023-03-15T12:15:43.519Z,1.20
2023-03-15T12:18:15.223Z,1.60
2023-03-15T12:20:44.062Z,1.23
2023-03-15T12:23:16.825Z,1.20
2023-03-15T12:25:54.757Z,1.30
2023-03-15T12:28:24.181Z,1.57
2023-03-15T12:30:54.786Z,1.73
2023-03-15T12:33:23.291Z,1.03
2023-03-15T12:35:51.668Z,1.30
2023-03-15T12:38:20.893Z,1.20
2023-03-15T12:40:52.900Z,1.10
2023-03-15T12:43:36.174Z,1.33
2023-03-15T12:46:04.769Z,1.30
2023-03-15T12:48:33.168Z,1.30
2023-03-15T12:51:05.335Z,1.23
2023-03-15T12:53:38.812Z,1.13
2023-03-15T12:56:25.976Z,1.40
2023-03-15T12:58:57.439Z,1.30
2023-03-15T13:01:26.720Z,0.90
2023-03-15T13:03:56.473Z,1.13
2023-03-15T13:06:31.386Z,1.00
2023-03-15T13:09:01.030Z,1.30
2023-03-15T13:11:30.062Z,1.00
2023-03-15T13:14:13.161Z,0.90
2023-03-15T13:16:43.689Z,1.10
2023-03-15T13:19:18.890Z,1.30
2023-03-15T13:22:04.276Z,1.00
2023-03-15T13:24:35.190Z,1.37
2023-03-15T13:27:04.609Z,1.30
2023-03-15T13:29:34.513Z,1.10
2023-03-15T13:32:03.384Z,0.97
2023-03-15T13:34:34.781Z,1.00
2023-03-15T13:37:06.299Z,1.10
2023-03-15T13:39:35.057Z,1.00
2023-03-15T13:42:03.845Z,1.07
2023-03-15T13:44:32.309Z,1.03
2023-03-15T13:47:03.600Z,1.40
2023-03-15T13:49:32.501Z,1.07
2023-03-15T13:52:01.317Z,0.90
2023-03-15T13:54:31.276Z,1.07
2023-03-15T13:57:01.821Z,0.97
2023-03-15T13:59:32.603Z,1.10
2023-03-15T14:02:03.687Z,1.30
2023-03-15T14:04:32.687Z,1.30
2023-03-15T14:07:05.750Z,0.90
2023-03-15T14:09:34.212Z,1.00
2023-03-15T14:12:02.931Z,0.90
2023-03-15T14:14:32.163Z,0.90
2023-03-15T14:17:05.679Z,1.10
2023-03-15T14:19:34.842Z,0.97
2023-03-15T14:22:04.147Z,1.00
2023-03-15T14:24:33.418Z,0.90
2023-03-15T14:27:02.087Z,0.90
2023-03-15T14:29:31.080Z,1.10
2023-03-15T14:32:02.548Z,1.73
2023-03-15T14:34:34.702Z,1.10
2023-03-15T14:37:05.552Z,1.07
2023-03-15T14:39:34.371Z,1.17
2023-03-15T14:42:02.974Z,1.20
2023-03-15T14:44:31.410Z,1.37
2023-03-15T14:46:59.994Z,1.23
2023-03-15T14:49:30.406Z,1.30
2023-03-15T14:52:00.919Z,1.30
2023-03-15T14:54:29.737Z,1.10
2023-03-15T14:56:58.198Z,1.37
2023-03-15T14:59:27.135Z,1.27
2023-03-15T15:01:56.090Z,1.40
2023-03-15T15:04:24.638Z,1.30
2023-03-15T15:06:56.215Z,1.40
2023-03-15T15:09:33.857Z,1.27
2023-03-15T15:12:03.514Z,1.20
2023-03-15T15:14:32.004Z,1.20
2023-03-15T15:17:00.731Z,1.20
2023-03-15T15:19:29.464Z,1.10
2023-03-15T15:21:59.842Z,1.50
2023-03-15T15:24:28.472Z,1.20
2023-03-15T15:26:57.281Z,1.87
2023-03-15T15:29:25.789Z,1.23
2023-03-15T15:31:54.289Z,1.40
2023-03-15T15:34:22.818Z,1.83
2023-03-15T15:36:52.134Z,1.40
2023-03-15T15:39:24.024Z,1.50
2023-03-15T15:41:52.758Z,1.70
2023-03-15T15:44:21.954Z,1.57
2023-03-15T15:46:50.918Z,1.90
2023-03-15T15:49:20.046Z,1.93
2023-03-15T15:51:50.880Z,2.17
2023-03-15T15:54:22.227Z,3.23
2023-03-15T15:56:56.958Z,2.00
2023-03-15T15:59:26.196Z,2.07
2023-03-15T16:02:02.276Z,2.30
2023-03-15T16:04:42.382Z,2.33
2023-03-15T16:07:11.718Z,2.30
2023-03-15T16:09:42.810Z,2.37
2023-03-15T16:12:19.079Z,2.37
2023-03-15T16:14:48.554Z,2.33
2023-03-15T16:17:19.105Z,2.83
2023-03-15T16:19:47.888Z,2.43
2023-03-15T16:22:19.131Z,2.50
2023-03-15T16:24:48.166Z,3.67
2023-03-15T16:27:19.261Z,2.63
2023-03-15T16:29:48.234Z,2.90
2023-03-15T16:32:22.504Z,3.00
2023-03-15T16:35:29.631Z,3.47
2023-03-15T16:37:58.644Z,2.87
2023-03-15T16:40:31.146Z,3.40
2023-03-15T16:43:01.468Z,3.30
2023-03-15T16:45:35.378Z,3.33
2023-03-15T16:48:06.246Z,3.57
2023-03-15T16:50:34.860Z,3.53
2023-03-15T16:53:08.784Z,3.70
2023-03-15T16:55:37.420Z,3.40
2023-03-15T16:58:16.307Z,3.70
2023-03-15T17:00:47.265Z,4.30
2023-03-15T17:03:18.728Z,4.03
2023-03-15T17:05:48.083Z,4.17
2023-03-15T17:08:18.904Z,4.73
2023-03-15T17:10:50.335Z,4.27
2023-03-15T17:13:38.691Z,4.87
2023-03-15T17:20:17.290Z,4.50
2023-03-15T17:25:38.907Z,4.30
2023-03-15T17:28:29.165Z,4.47
2023-03-15T17:31:27.300Z,4.33
2023-03-15T17:34:01.579Z,5.03
2023-03-15T17:47:07.845Z,7.47
2023-03-15T17:54:22.106Z,4.63
2023-03-15T18:00:10.275Z,4.93
2023-03-15T18:17:15.293Z,4.70
2023-03-15T18:19:53.562Z,5.00
2023-03-15T18:23:00.525Z,4.80
2023-03-15T18:26:12.053Z,4.60
2023-03-15T18:28:50.658Z,5.10
2023-03-15T18:31:20.210Z,5.10
2023-03-15T18:33:52.016Z,6.00
2023-03-15T18:36:38.751Z,6.20
2023-03-15T18:39:10.274Z,4.73
2023-03-15T18:41:50.950Z,4.33
2023-03-15T18:44:25.267Z,4.33
2023-03-15T18:47:12.507Z,4.20
2023-03-15T19:03:18.539Z,3.37
2023-03-15T19:05:46.916Z,4.50
2023-03-15T19:08:15.618Z,3.70
2023-03-15T19:10:46.825Z,3.10
2023-03-15T19:13:16.668Z,2.77
2023-03-15T19:15:45.422Z,2.70
2023-03-15T19:18:14.065Z,2.90
2023-03-15T19:20:43.959Z,3.03
2023-03-15T19:23:12.517Z,2.90
2023-03-15T19:25:41.002Z,2.50
2023-03-15T19:28:09.441Z,2.80
2023-03-15T19:30:37.909Z,2.77
2023-03-15T19:33:06.338Z,2.77
2023-03-15T19:35:37.833Z,9.40
2023-03-15T19:38:07.575Z,5.33
2023-03-15T19:40:36.078Z,4.27
2023-03-15T19:43:07.549Z,4.20
2023-03-15T19:45:35.901Z,3.97
2023-03-15T19:48:04.362Z,4.17
2023-03-15T19:50:34.046Z,3.77
2023-03-15T19:53:04.216Z,3.70
2023-03-15T19:55:35.666Z,3.93
2023-03-15T19:58:04.145Z,3.90
2023-03-15T20:00:32.671Z,4.17
2023-03-15T20:03:01.024Z,4.20
2023-03-15T20:05:29.426Z,3.87
2023-03-15T20:07:58.092Z,3.97
2023-03-15T20:10:27.304Z,3.87
2023-03-15T20:12:59.334Z,3.80
2023-03-15T20:15:29.384Z,3.83
2023-03-15T20:17:58.233Z,4.00
2023-03-15T20:20:29.514Z,3.80
2023-03-15T20:22:58.388Z,4.17
2023-03-15T20:25:28.806Z,4.30
2023-03-15T20:27:58.661Z,4.07
2023-03-15T20:30:27.449Z,4.33
2023-03-15T20:32:56.159Z,4.47
2023-03-15T20:35:24.871Z,4.47
2023-03-15T20:37:53.706Z,3.63
2023-03-15T20:40:22.817Z,4.03
2023-03-15T20:42:51.544Z,4.20
2023-03-15T20:45:21.901Z,4.40
2023-03-15T20:47:51.437Z,4.50
2023-03-15T20:50:20.458Z,4.80
2023-03-15T20:52:49.065Z,4.43
2023-03-15T20:55:17.638Z,4.00
2023-03-15T20:57:46.584Z,4.30
2023-03-15T21:00:18.446Z,3.80
2023-03-15T21:02:54.643Z,3.80
2023-03-15T21:05:24.560Z,3.97
2023-03-15T21:07:55.667Z,4.17
2023-03-15T21:10:25.018Z,3.87
2023-03-15T21:12:54.693Z,3.80
2023-03-15T21:15:27.293Z,3.93
2023-03-15T21:17:57.657Z,3.87
2023-03-15T21:20:26.454Z,3.50
2023-03-15T21:22:55.634Z,3.60
2023-03-15T21:25:24.361Z,3.93
2023-03-15T21:27:53.174Z,4.30
2023-03-15T21:30:22.975Z,3.70
2023-03-15T21:32:52.622Z,4.00
2023-03-15T21:35:23.580Z,3.97
2023-03-15T21:37:52.145Z,3.97
2023-03-15T21:40:20.916Z,3.97
2023-03-15T21:42:50.793Z,4.10
2023-03-15T21:45:19.257Z,3.97
2023-03-15T21:47:48.172Z,4.10
2023-03-15T21:50:17.180Z,4.03
2023-03-15T21:52:47.767Z,4.03
2023-03-15T21:55:16.651Z,4.43
2023-03-15T21:57:45.753Z,4.40
2023-03-15T22:00:18.516Z,4.70
2023-03-15T22:02:47.086Z,4.63
2023-03-15T22:05:16.050Z,4.97
2023-03-15T22:07:44.651Z,5.53
2023-03-15T22:10:16.047Z,4.83
2023-03-15T22:12:46.728Z,5.27
2023-03-15T22:15:15.525Z,4.40
2023-03-15T22:17:46.796Z,5.10
2023-03-15T22:20:17.092Z,5.13
2023-03-15T22:25:26.011Z,5.00
2023-03-15T22:27:55.498Z,4.80
2023-03-15T22:30:27.300Z,5.37
2023-03-15T22:33:00.974Z,5.23
2023-03-15T22:35:33.058Z,5.67
2023-03-15T22:38:10.033Z,4.87
2023-03-15T22:40:46.589Z,5.33
2023-03-15T22:43:31.003Z,5.00
2023-03-15T22:46:06.580Z,5.77
2023-03-15T22:48:47.595Z,5.93
2023-03-15T22:51:18.795Z,5.87
2023-03-15T22:53:49.839Z,5.17
2023-03-15T22:56:23.009Z,4.97
2023-03-15T22:58:52.364Z,5.30
2023-03-15T23:01:21.473Z,5.50
2023-03-15T23:03:50.074Z,5.50
2023-03-15T23:06:21.044Z,5.07
2023-03-15T23:08:49.848Z,5.40
2023-03-15T23:11:37.309Z,5.30
2023-03-15T23:14:07.922Z,5.07
2023-03-15T23:16:40.169Z,5.47
2023-03-15T23:19:11.134Z,5.60
2023-03-15T23:21:44.077Z,5.03
2023-03-15T23:24:24.930Z,5.57
2023-03-15T23:27:00.848Z,5.27
2023-03-15T23:29:53.067Z,5.47
2023-03-15T23:32:30.897Z,5.03
2023-03-15T23:35:06.839Z,4.70
2023-03-15T23:37:45.130Z,5.30
2023-03-15T23:40:17.960Z,5.07
2023-03-15T23:42:52.624Z,5.00
2023-03-15T23:45:22.640Z,5.50
2023-03-15T23:47:51.937Z,6.47
2023-03-15T23:50:20.632Z,5.67
2023-03-15T23:52:49.418Z,5.20
2023-03-15T23:55:18.224Z,5.10
2023-03-15T23:57:46.959Z,5.20
